Hlavní strana
METAR-TAF:

METAR-TAF

Letiště :

Kuusamo, Finsko

zeměpisná šířka: 65-58N, zeměpisná délka: 029-11E, výška: 262 m

Aktuální stav počasí

Zpráva byla vytvořena před 42 minutami, v 23:20 UTC
Jihojihozápadní vítr 6 kt
Teplota 2°C
Vlhkost vzduchu 100%
Tlak 1014 hPa
Viditelnost 10 km a více
Zataženo ve výšce 200 ft
slabé dešťové přeháňky

METAR: EFKS 202320Z AUTO 20006KT 9999 -SHRA OVC002 02/02 Q1014

Čas: 03:02 (00:02 UTC)


TAF: chybějící

Stav a předpovědi počasí z více než 4 000 letišť (zprávy METAR a TAF).

Červené a žluté tečky na mapě představují dostupné meteorologické stanice.

Když kurzor umístíte na tečku, zobrazí se název stanice.

Pak kliknutím zobrazíte stav a předpověď počasí.

Chcete-li změnit mapu, kliknutím na zelené tlačítko se znaménkem +mapu přiblížíte, kliknutím na zelené tlačítko se znaménkem – mapu oddálíte a kliknutím na zelené šipky přejdete na sousední mapy.


METAR-TAF: